OIBS  Sirri Island  Airport

Iran

Add Bookmark
Status IATA
Operational SXI
Latitude Longitude
25° 54' 32" N 54° 32' 21" E
25.908899 54.539398
Local (DST + 5) UTC (GMT + 4)
Mar 4, 2015 03:34 Mar 4, 2015 00:04
Sunrise-Sunset Local UTC
Begin Civil Twilight 05:47 02:17
Sunrise 06:11 02:41
Sunset 05:56 14:26
End Civil Twilight 06:19 14:49

Current Weather

METAR Observed VFR
OIBS 031500Z 26010KT CAVOK 23/14 Q1011 Tue, Mar 3, 2015 @ 15:00 UTC
(9 Hours, 4 Minutes ago)
Visual Flight Rules
Wind Visibility Clouds Conditions
260° at 10 knots (19 kph) 10 km or more
  • Clear skies
  • No significant weather
Temperatures Readings Precipitation
Current Temp 23°C (73°F)
Dewpoint 14°C (57°F)
Humidity 57%
Altimeter 29.85"Hg
Sea Level Pressure 1011mb
Field Elevation 45.93'
None Recorded

Additional weather within a 92.6km radius of OIBS

Map ICAO Location
OIBA 49.4km E (094°)
OIBL 74.8km N (022°)
OIBK 88.3km N (321°)

24 Hour Weather History

Loading
-

24 Hour Weather Graphs

Loading
-

CheckWX.com is intended as a tool to help pilots better visualize weather data. It is not intended as a substitute for an official weather briefing obtained from a Flight Service Station. CheckWX.com does not meet the FAA requirements for an official pre-flight weather briefing. Therefore, it's important that pilots still call and obtain an official FSS pre-flight weather briefing.